createdAt,value
2023-02-11T00:01:34.476Z,27.67
2023-02-11T00:04:03.492Z,29.60
2023-02-11T00:06:33.608Z,29.13
2023-02-11T00:09:02.378Z,26.50
2023-02-11T00:11:31.328Z,26.97
2023-02-11T00:14:02.757Z,26.37
2023-02-11T00:16:32.493Z,29.93
2023-02-11T00:19:02.452Z,28.70
2023-02-11T00:21:31.285Z,27.33
2023-02-11T00:24:02.387Z,29.07
2023-02-11T00:26:35.128Z,31.60
2023-02-11T00:29:04.720Z,29.50
2023-02-11T00:31:33.604Z,30.60
2023-02-11T00:34:02.191Z,28.50
2023-02-11T00:36:31.357Z,31.43
2023-02-11T00:39:01.449Z,31.83
2023-02-11T00:41:30.055Z,32.47
2023-02-11T00:43:58.805Z,28.30
2023-02-11T00:46:27.441Z,29.67
2023-02-11T00:48:57.946Z,27.20
2023-02-11T00:51:28.178Z,31.17
2023-02-11T00:53:56.654Z,27.30
2023-02-11T00:56:25.305Z,28.23
2023-02-11T00:58:54.361Z,28.70
2023-02-11T01:01:22.972Z,28.47
2023-02-11T01:03:51.750Z,28.90
2023-02-11T01:06:20.496Z,28.37
2023-02-11T01:08:48.997Z,29.73
2023-02-11T01:11:20.933Z,28.77
2023-02-11T01:13:51.144Z,32.30
2023-02-11T01:16:20.748Z,30.23
2023-02-11T01:18:49.644Z,31.30
2023-02-11T01:21:18.179Z,28.67
2023-02-11T01:23:46.896Z,30.23
2023-02-11T01:26:15.586Z,31.17
2023-02-11T01:28:44.229Z,28.67
2023-02-11T01:31:12.768Z,25.70
2023-02-11T01:33:41.592Z,29.00
2023-02-11T01:36:10.601Z,29.53
2023-02-11T01:38:40.979Z,32.33
2023-02-11T01:41:14.629Z,33.90
2023-02-11T01:43:50.922Z,28.27
2023-02-11T01:46:25.021Z,28.97
2023-02-11T01:49:12.444Z,26.73
2023-02-11T01:51:48.494Z,29.13
2023-02-11T01:54:39.340Z,33.97
2023-02-11T01:57:25.089Z,29.00
2023-02-11T02:00:29.119Z,29.83
2023-02-11T02:03:07.624Z,31.07
2023-02-11T02:05:47.013Z,29.33
2023-02-11T02:08:29.941Z,30.03
2023-02-11T02:11:00.922Z,26.53
2023-02-11T02:13:34.830Z,27.70
2023-02-11T02:16:10.175Z,28.03
2023-02-11T02:18:41.567Z,28.93
2023-02-11T02:21:34.141Z,24.97
2023-02-11T02:24:34.693Z,26.93
2023-02-11T02:27:36.160Z,27.87
2023-02-11T02:30:31.921Z,27.20
2023-02-11T02:33:48.596Z,29.17
2023-02-11T02:36:33.188Z,27.27
2023-02-11T02:39:09.344Z,27.10
2023-02-11T02:41:39.171Z,34.23
2023-02-11T02:44:09.942Z,27.17
2023-02-11T02:46:38.949Z,30.13
2023-02-11T02:49:14.669Z,30.80
2023-02-11T02:52:01.290Z,27.27
2023-02-11T02:55:09.887Z,28.00
2023-02-11T02:57:50.493Z,28.43
2023-02-11T03:00:59.945Z,30.27
2023-02-11T03:03:37.374Z,29.17
2023-02-11T03:06:21.304Z,32.10
2023-02-11T03:09:11.153Z,29.87
2023-02-11T03:11:39.939Z,28.67
2023-02-11T03:14:12.349Z,26.47
2023-02-11T03:16:41.356Z,29.80
2023-02-11T03:19:19.866Z,30.50
2023-02-11T03:21:50.547Z,30.67
2023-02-11T03:24:34.745Z,29.70
2023-02-11T03:27:34.986Z,32.93
2023-02-11T03:30:15.060Z,28.77
2023-02-11T03:32:57.264Z,30.53
2023-02-11T03:35:54.651Z,33.63
2023-02-11T03:38:35.895Z,32.80
2023-02-11T03:41:07.795Z,30.00
2023-02-11T03:43:43.342Z,31.13
2023-02-11T03:46:15.919Z,31.83
2023-02-11T03:48:50.897Z,32.47
2023-02-11T03:51:19.596Z,29.13
2023-02-11T03:53:49.585Z,33.83
2023-02-11T03:56:23.096Z,32.57
2023-02-11T03:58:51.632Z,29.33
2023-02-11T04:01:20.138Z,31.60
2023-02-11T04:03:48.705Z,28.57
2023-02-11T04:06:17.134Z,29.53
2023-02-11T04:08:45.662Z,28.03
2023-02-11T04:11:14.084Z,33.37
2023-02-11T04:13:42.614Z,29.53
2023-02-11T04:16:11.123Z,26.47
2023-02-11T04:18:39.679Z,32.20
2023-02-11T04:21:08.157Z,29.70
2023-02-11T04:23:36.649Z,30.53
2023-02-11T04:26:05.317Z,28.20
2023-02-11T04:28:34.940Z,32.23
2023-02-11T04:31:03.769Z,30.80
2023-02-11T04:33:32.289Z,28.83
2023-02-11T04:36:00.751Z,27.97
2023-02-11T04:38:29.210Z,31.00
2023-02-11T04:41:00.573Z,31.53
2023-02-11T04:43:29.070Z,29.50
2023-02-11T04:46:00.377Z,29.63
2023-02-11T04:48:28.996Z,29.10
2023-02-11T04:50:57.358Z,28.60
2023-02-11T04:53:25.867Z,32.80
2023-02-11T04:55:54.332Z,29.53
2023-02-11T04:58:22.849Z,28.87
2023-02-11T05:00:53.739Z,32.40
2023-02-11T05:03:22.145Z,27.43
2023-02-11T05:05:51.389Z,27.83
2023-02-11T05:08:20.041Z,34.73
2023-02-11T05:10:48.973Z,29.17
2023-02-11T05:13:17.474Z,28.43
2023-02-11T05:15:46.071Z,30.07
2023-02-11T05:18:15.592Z,31.30
2023-02-11T05:20:44.981Z,31.90
2023-02-11T05:23:13.876Z,30.83
2023-02-11T05:25:42.277Z,32.73
2023-02-11T05:28:10.943Z,32.80
2023-02-11T05:30:39.431Z,27.07
2023-02-11T05:33:08.031Z,32.93
2023-02-11T05:35:36.778Z,33.87
2023-02-11T05:38:06.217Z,30.90
2023-02-11T05:40:37.051Z,31.40
2023-02-11T05:43:05.555Z,32.23
2023-02-11T05:45:34.340Z,33.37
2023-02-11T05:48:02.776Z,32.40
2023-02-11T05:50:31.231Z,33.07
2023-02-11T05:52:59.832Z,30.40
2023-02-11T05:55:28.401Z,34.90
2023-02-11T05:57:56.886Z,31.20
2023-02-11T06:00:25.753Z,35.63
2023-02-11T06:02:54.255Z,35.47
2023-02-11T06:05:22.843Z,33.47
2023-02-11T06:07:51.452Z,31.77
2023-02-11T06:10:20.191Z,31.90
2023-02-11T06:12:48.639Z,38.83
2023-02-11T06:15:23.080Z,35.47
2023-02-11T06:17:56.369Z,34.33
2023-02-11T06:20:24.986Z,34.03
2023-02-11T06:22:53.440Z,35.93
2023-02-11T06:25:24.774Z,32.97
2023-02-11T06:27:55.627Z,34.63
2023-02-11T06:30:24.558Z,39.40
2023-02-11T06:32:53.092Z,31.67
2023-02-11T06:35:21.535Z,33.17
2023-02-11T06:37:50.005Z,35.43
2023-02-11T06:40:18.585Z,39.60
2023-02-11T06:42:47.054Z,38.67
2023-02-11T06:45:15.484Z,39.17
2023-02-11T06:47:43.901Z,38.27
2023-02-11T06:50:15.578Z,38.47
2023-02-11T06:52:44.100Z,42.40
2023-02-11T06:55:12.551Z,35.60
2023-02-11T06:57:41.157Z,40.43
2023-02-11T07:00:10.250Z,33.90
2023-02-11T07:02:38.636Z,38.50
2023-02-11T07:05:08.830Z,38.73
2023-02-11T07:07:38.061Z,36.43
2023-02-11T07:10:06.980Z,36.17
2023-02-11T07:12:35.389Z,43.03
2023-02-11T07:15:03.971Z,34.43
2023-02-11T07:17:32.392Z,41.73
2023-02-11T07:20:00.886Z,38.10
2023-02-11T07:22:29.393Z,32.53
2023-02-11T07:24:57.790Z,35.10
2023-02-11T07:27:26.270Z,34.57
2023-02-11T07:29:54.685Z,36.17
2023-02-11T07:32:23.190Z,34.33
2023-02-11T07:34:51.740Z,34.60
2023-02-11T07:37:20.685Z,34.33
2023-02-11T07:39:49.142Z,33.70
2023-02-11T07:42:17.660Z,32.53
2023-02-11T07:44:50.229Z,41.77
2023-02-11T07:47:18.913Z,35.70
2023-02-11T07:49:47.744Z,36.03
2023-02-11T07:52:16.228Z,37.97
2023-02-11T07:54:44.408Z,40.23
2023-02-11T07:57:12.796Z,35.30
2023-02-11T07:59:41.288Z,33.10
2023-02-11T08:02:10.866Z,34.20
2023-02-11T08:04:39.342Z,35.90
2023-02-11T08:07:07.795Z,37.10
2023-02-11T08:09:36.209Z,36.33
2023-02-11T08:12:04.742Z,37.97
2023-02-11T08:14:33.733Z,39.53
2023-02-11T08:17:01.858Z,36.13
2023-02-11T08:19:30.315Z,41.57
2023-02-11T08:21:59.933Z,38.20
2023-02-11T08:24:28.383Z,36.30
2023-02-11T08:26:56.936Z,41.30
2023-02-11T08:29:25.419Z,38.03
2023-02-11T08:31:53.903Z,35.30
2023-02-11T08:34:22.375Z,34.13
2023-02-11T08:36:51.120Z,37.70
2023-02-11T08:39:23.107Z,36.33
2023-02-11T08:41:54.533Z,35.90
2023-02-11T08:44:24.183Z,32.37
2023-02-11T08:46:53.108Z,39.03
2023-02-11T08:49:22.317Z,39.20
2023-02-11T08:51:51.099Z,35.53
2023-02-11T08:54:19.161Z,33.83
2023-02-11T08:56:47.790Z,31.90
2023-02-11T08:59:17.850Z,34.93
2023-02-11T09:01:47.251Z,35.87
2023-02-11T09:04:16.289Z,33.93
2023-02-11T09:06:44.694Z,34.10
2023-02-11T09:09:17.345Z,36.50
2023-02-11T09:11:46.397Z,35.47
2023-02-11T09:14:21.875Z,33.13
2023-02-11T09:16:50.765Z,33.07
2023-02-11T09:19:20.097Z,36.83
2023-02-11T09:21:48.748Z,35.87
2023-02-11T09:24:17.008Z,29.67
2023-02-11T09:26:45.530Z,33.63
2023-02-11T09:29:14.286Z,31.67
2023-02-11T09:31:42.806Z,34.77
2023-02-11T09:34:12.822Z,29.77
2023-02-11T09:36:41.932Z,34.13
2023-02-11T09:39:16.913Z,31.77
2023-02-11T09:42:43.327Z,33.13
2023-02-11T09:45:21.247Z,31.70
2023-02-11T09:48:06.270Z,33.50
2023-02-11T09:50:43.076Z,35.43
2023-02-11T09:53:30.766Z,35.57
2023-02-11T09:56:02.662Z,35.43
2023-02-11T09:58:31.597Z,29.37
2023-02-11T10:01:00.018Z,32.53
2023-02-11T10:04:07.374Z,32.43
2023-02-11T10:06:53.234Z,31.30
2023-02-11T10:10:03.525Z,33.50
2023-02-11T10:12:51.221Z,30.73
2023-02-11T10:15:22.501Z,32.10
2023-02-11T10:18:23.964Z,29.73
2023-02-11T10:21:34.273Z,30.00
2023-02-11T10:24:07.181Z,32.17
2023-02-11T10:26:38.521Z,30.40
2023-02-11T10:29:37.993Z,32.47
2023-02-11T10:32:41.764Z,30.17
2023-02-11T10:35:28.284Z,33.90
2023-02-11T10:37:57.041Z,32.90
2023-02-11T10:40:32.386Z,29.73
2023-02-11T10:43:05.833Z,33.83
2023-02-11T10:45:44.372Z,29.50
2023-02-11T10:48:49.491Z,28.73
2023-02-11T10:51:31.574Z,31.80
2023-02-11T10:54:05.586Z,34.33
2023-02-11T10:56:46.233Z,32.37
2023-02-11T10:59:40.439Z,28.20
2023-02-11T11:02:34.460Z,32.50
2023-02-11T11:05:18.718Z,28.67
2023-02-11T11:08:01.798Z,29.53
2023-02-11T11:10:44.418Z,34.43
2023-02-11T11:13:34.224Z,32.80
2023-02-11T11:16:10.177Z,29.67
2023-02-11T11:18:39.087Z,27.90
2023-02-11T11:21:24.689Z,30.53
2023-02-11T11:24:00.781Z,27.50
2023-02-11T11:26:44.939Z,27.57
2023-02-11T11:29:29.238Z,29.90
2023-02-11T11:32:26.487Z,30.00
2023-02-11T11:34:58.433Z,30.90
2023-02-11T11:37:36.738Z,32.67
2023-02-11T11:40:16.962Z,28.43
2023-02-11T11:42:45.252Z,27.53
2023-02-11T11:45:19.652Z,26.53
2023-02-11T11:48:20.886Z,28.07
2023-02-11T11:50:51.579Z,28.20
2023-02-11T11:53:42.933Z,27.90
2023-02-11T11:56:25.535Z,28.80
2023-02-11T11:58:55.265Z,32.47
2023-02-11T12:01:54.088Z,30.43
2023-02-11T12:04:34.925Z,24.77
2023-02-11T12:07:47.258Z,27.87
2023-02-11T12:11:16.626Z,29.03
2023-02-11T12:14:22.608Z,26.63
2023-02-11T12:17:03.889Z,27.23
2023-02-11T12:19:48.656Z,31.20
2023-02-11T12:22:37.955Z,24.93
2023-02-11T12:25:05.975Z,26.73
2023-02-11T12:28:01.733Z,26.73
2023-02-11T12:30:47.360Z,28.37
2023-02-11T12:33:27.655Z,25.30
2023-02-11T12:36:40.830Z,30.13
2023-02-11T12:39:21.031Z,28.43
2023-02-11T12:42:33.053Z,25.67
2023-02-11T12:45:13.090Z,24.97
2023-02-11T12:48:06.197Z,29.30
2023-02-11T12:51:14.459Z,31.87
2023-02-11T12:53:54.786Z,24.67
2023-02-11T12:56:30.829Z,30.63
2023-02-11T12:59:02.084Z,25.80
2023-02-11T13:01:41.137Z,33.77
2023-02-11T13:04:40.206Z,28.77
2023-02-11T13:07:24.520Z,30.80
2023-02-11T13:10:25.942Z,27.90
2023-02-11T13:13:14.333Z,30.50
2023-02-11T13:15:57.517Z,27.73
2023-02-11T13:18:50.944Z,27.73
2023-02-11T13:21:47.923Z,29.77
2023-02-11T13:25:09.430Z,28.70
2023-02-11T13:27:50.529Z,29.53
2023-02-11T13:30:34.150Z,25.17
2023-02-11T13:33:02.503Z,29.70
2023-02-11T13:35:43.251Z,26.20
2023-02-11T13:38:29.203Z,28.77
2023-02-11T13:41:03.136Z,32.13
2023-02-11T13:43:33.988Z,28.57
2023-02-11T13:46:22.963Z,26.33
2023-02-11T13:48:54.443Z,29.63
2023-02-11T13:51:52.612Z,29.77
2023-02-11T13:54:30.316Z,27.77
2023-02-11T13:57:38.904Z,28.57
2023-02-11T14:00:36.183Z,29.10
2023-02-11T14:03:33.137Z,25.83
2023-02-11T14:06:27.049Z,28.80
2023-02-11T14:09:15.904Z,25.67
2023-02-11T14:11:55.425Z,30.20
2023-02-11T14:14:34.977Z,26.30
2023-02-11T14:17:09.357Z,28.07
2023-02-11T14:19:47.282Z,25.03
2023-02-11T14:22:19.743Z,25.27
2023-02-11T14:25:04.718Z,31.23
2023-02-11T14:27:44.641Z,28.63
2023-02-11T14:30:42.825Z,28.23
2023-02-11T14:33:53.733Z,26.47
2023-02-11T14:36:31.892Z,28.43
2023-02-11T14:39:45.987Z,26.63
2023-02-11T14:42:22.474Z,24.57
2023-02-11T14:44:52.465Z,26.43
2023-02-11T14:47:29.938Z,25.07
2023-02-11T14:49:58.363Z,32.00
2023-02-11T14:52:31.380Z,29.47
2023-02-11T14:55:24.722Z,23.97
2023-02-11T14:58:14.348Z,23.97
2023-02-11T15:01:00.132Z,23.97
2023-02-11T15:03:39.738Z,29.80
2023-02-11T15:06:21.020Z,23.53
2023-02-11T15:09:20.044Z,27.73
2023-02-11T15:11:52.513Z,23.63
2023-02-11T15:14:25.042Z,25.00
2023-02-11T15:16:56.534Z,23.37
2023-02-11T15:19:27.605Z,24.13
2023-02-11T15:21:56.952Z,21.87
2023-02-11T15:24:32.014Z,23.07
2023-02-11T15:27:18.556Z,25.63
2023-02-11T15:29:51.060Z,24.07
2023-02-11T15:32:26.773Z,23.37
2023-02-11T15:34:57.388Z,26.63
2023-02-11T15:37:30.174Z,23.73
2023-02-11T15:40:19.978Z,24.67
2023-02-11T15:43:06.069Z,23.90
2023-02-11T15:45:44.156Z,26.57
2023-02-11T15:48:18.639Z,21.43
2023-02-11T15:50:54.733Z,25.53
2023-02-11T15:53:32.793Z,25.00
2023-02-11T15:56:13.791Z,21.90
2023-02-11T15:58:45.470Z,21.60
2023-02-11T16:01:14.204Z,22.67
2023-02-11T16:03:44.374Z,22.43
2023-02-11T16:06:17.089Z,21.67
2023-02-11T16:08:57.345Z,21.87
2023-02-11T16:11:48.686Z,22.33
2023-02-11T16:14:30.594Z,23.67
2023-02-11T16:17:13.731Z,22.93
2023-02-11T16:19:50.910Z,23.20
2023-02-11T16:22:35.377Z,22.53
2023-02-11T16:25:03.624Z,19.93
2023-02-11T16:27:43.134Z,17.90
2023-02-11T16:30:30.651Z,22.93
2023-02-11T16:32:59.087Z,18.80
2023-02-11T16:35:27.148Z,19.17
2023-02-11T16:37:55.576Z,21.97
2023-02-11T16:40:24.197Z,19.50
2023-02-11T16:42:53.463Z,19.23
2023-02-11T16:45:21.998Z,20.83
2023-02-11T16:47:50.049Z,19.53
2023-02-11T16:50:25.537Z,18.50
2023-02-11T16:52:54.372Z,20.33
2023-02-11T16:55:22.836Z,20.37
2023-02-11T16:57:51.294Z,20.23
2023-02-11T17:00:19.888Z,18.50
2023-02-11T17:02:48.042Z,18.63
2023-02-11T17:05:23.378Z,20.90
2023-02-11T17:07:51.467Z,17.77
2023-02-11T17:10:23.920Z,20.10
2023-02-11T17:12:53.406Z,19.63
2023-02-11T17:15:21.829Z,19.63
2023-02-11T17:17:50.244Z,21.47
2023-02-11T17:20:18.635Z,20.53
2023-02-11T17:22:47.112Z,21.53
2023-02-11T17:25:15.564Z,17.97
2023-02-11T17:27:43.943Z,18.83
2023-02-11T17:30:14.183Z,19.10
2023-02-11T17:32:42.995Z,17.33
2023-02-11T17:35:11.045Z,19.67
2023-02-11T17:37:39.531Z,18.47
2023-02-11T17:40:09.583Z,21.23
2023-02-11T17:42:38.036Z,21.27
2023-02-11T17:45:07.201Z,23.47
2023-02-11T17:47:35.732Z,18.03
2023-02-11T17:50:04.334Z,21.73
2023-02-11T17:52:32.727Z,21.00
2023-02-11T17:55:01.212Z,22.40
2023-02-11T17:57:29.702Z,23.87
2023-02-11T17:59:58.225Z,23.87
2023-02-11T18:02:26.486Z,23.90
2023-02-11T18:04:57.496Z,26.47
2023-02-11T18:07:26.604Z,22.77
2023-02-11T18:09:54.866Z,23.20
2023-02-11T18:12:26.319Z,26.67
2023-02-11T18:14:57.992Z,23.87
2023-02-11T18:17:26.875Z,24.87
2023-02-11T18:19:59.225Z,25.47
2023-02-11T18:22:27.986Z,24.97
2023-02-11T18:24:56.742Z,29.20
2023-02-11T18:27:25.150Z,30.03
2023-02-11T18:29:53.642Z,28.90
2023-02-11T18:32:22.107Z,25.57
2023-02-11T18:34:50.591Z,28.37
2023-02-11T18:37:19.917Z,29.37
2023-02-11T18:39:48.032Z,32.23
2023-02-11T18:42:16.094Z,32.50
2023-02-11T18:44:44.503Z,32.03
2023-02-11T18:47:13.030Z,34.10
2023-02-11T18:49:41.443Z,42.67
2023-02-11T18:52:09.886Z,35.93
2023-02-11T18:54:38.327Z,32.93
2023-02-11T18:57:06.741Z,34.23
2023-02-11T18:59:35.203Z,34.70
2023-02-11T19:02:03.616Z,33.53
2023-02-11T19:04:32.101Z,36.93
2023-02-11T19:07:03.177Z,33.40
2023-02-11T19:09:31.802Z,32.30
2023-02-11T19:12:01.876Z,36.27
2023-02-11T19:14:34.910Z,35.40
2023-02-11T19:17:10.740Z,33.47
2023-02-11T19:19:40.872Z,33.53
2023-02-11T19:22:10.807Z,36.53
2023-02-11T19:24:39.756Z,38.07
2023-02-11T19:27:08.288Z,34.30
2023-02-11T19:29:36.780Z,35.73
2023-02-11T19:32:07.075Z,37.10
2023-02-11T19:34:41.202Z,41.00
2023-02-11T19:37:12.526Z,34.60
2023-02-11T19:39:42.583Z,37.73
2023-02-11T19:42:10.973Z,36.37
2023-02-11T19:44:39.410Z,36.00
2023-02-11T19:47:07.982Z,34.93
2023-02-11T19:49:36.072Z,35.17
2023-02-11T19:52:04.249Z,40.50
2023-02-11T19:54:32.452Z,35.10
2023-02-11T19:57:00.652Z,36.90
2023-02-11T19:59:29.074Z,35.23
2023-02-11T20:01:57.702Z,35.03
2023-02-11T20:04:25.842Z,41.50
2023-02-11T20:06:54.107Z,34.33
2023-02-11T20:09:22.835Z,39.37
2023-02-11T20:11:51.281Z,36.43
2023-02-11T20:14:19.797Z,40.53
2023-02-11T20:16:50.010Z,37.70
2023-02-11T20:19:22.065Z,36.27
2023-02-11T20:21:55.773Z,40.70
2023-02-11T20:24:25.296Z,38.83
2023-02-11T20:26:55.861Z,35.47
2023-02-11T20:29:25.544Z,38.63
2023-02-11T20:31:53.877Z,40.43
2023-02-11T20:34:22.499Z,38.90
2023-02-11T20:36:52.812Z,40.47
2023-02-11T20:39:23.453Z,35.83
2023-02-11T20:41:53.665Z,38.00
2023-02-11T20:44:22.875Z,37.77
2023-02-11T20:46:54.364Z,37.87
2023-02-11T20:49:26.908Z,40.40
2023-02-11T20:51:55.608Z,38.33
2023-02-11T20:54:25.993Z,38.50
2023-02-11T20:56:55.974Z,38.27
2023-02-11T20:59:24.309Z,43.43
2023-02-11T21:01:56.402Z,35.93
2023-02-11T21:04:30.626Z,39.47
2023-02-11T21:07:02.369Z,38.43
2023-02-11T21:09:33.787Z,37.67
2023-02-11T21:12:03.287Z,35.97
2023-02-11T21:14:31.956Z,35.50
2023-02-11T21:17:00.494Z,41.87
2023-02-11T21:19:28.930Z,41.50
2023-02-11T21:22:00.525Z,37.87
2023-02-11T21:24:28.834Z,36.80
2023-02-11T21:26:57.436Z,40.47
2023-02-11T21:29:26.086Z,36.13
2023-02-11T21:31:54.505Z,45.33
2023-02-11T21:34:22.896Z,40.10
2023-02-11T21:36:52.258Z,37.63
2023-02-11T21:39:21.134Z,39.40
2023-02-11T21:41:49.737Z,39.83
2023-02-11T21:44:18.267Z,39.47
2023-02-11T21:46:46.514Z,37.77
2023-02-11T21:49:15.015Z,43.23
2023-02-11T21:51:43.050Z,37.73
2023-02-11T21:54:12.966Z,40.90
2023-02-11T21:56:41.561Z,44.93
2023-02-11T21:59:13.622Z,38.07
2023-02-11T22:01:42.894Z,46.03
2023-02-11T22:04:11.568Z,38.07
2023-02-11T22:06:40.209Z,39.87
2023-02-11T22:09:10.828Z,44.70
2023-02-11T22:11:38.877Z,40.07
2023-02-11T22:14:07.386Z,39.70
2023-02-11T22:16:35.824Z,39.23
2023-02-11T22:19:06.002Z,37.03
2023-02-11T22:21:34.179Z,41.20
2023-02-11T22:24:02.255Z,38.63
2023-02-11T22:26:30.273Z,42.37
2023-02-11T22:28:59.196Z,46.10
2023-02-11T22:31:34.204Z,41.87
2023-02-11T22:34:04.537Z,37.27
2023-02-11T22:36:38.293Z,41.13
2023-02-11T22:39:14.219Z,38.47
2023-02-11T22:41:44.231Z,37.00
2023-02-11T22:44:12.684Z,37.23
2023-02-11T22:46:41.558Z,41.37
2023-02-11T22:49:10.970Z,40.70
2023-02-11T22:51:40.252Z,43.07
2023-02-11T22:54:13.121Z,38.57
2023-02-11T22:56:41.595Z,36.73
2023-02-11T22:59:14.449Z,39.33
2023-02-11T23:01:43.469Z,41.37
2023-02-11T23:04:15.868Z,38.70
2023-02-11T23:06:44.365Z,38.03
2023-02-11T23:09:13.446Z,41.53
2023-02-11T23:11:42.163Z,41.20
2023-02-11T23:14:12.214Z,38.90
2023-02-11T23:16:40.612Z,38.97
2023-02-11T23:19:10.340Z,38.67
2023-02-11T23:21:40.656Z,36.90
2023-02-11T23:24:14.729Z,37.97
2023-02-11T23:26:44.925Z,42.70
2023-02-11T23:29:13.798Z,36.63
2023-02-11T23:31:46.071Z,41.90
2023-02-11T23:34:17.183Z,38.77
2023-02-11T23:36:45.853Z,41.93
2023-02-11T23:39:17.124Z,40.33
2023-02-11T23:41:46.315Z,42.10
2023-02-11T23:44:14.743Z,37.30
2023-02-11T23:46:43.124Z,34.57
2023-02-11T23:49:11.270Z,34.60
2023-02-11T23:51:39.663Z,37.17
2023-02-11T23:54:08.038Z,39.47
2023-02-11T23:56:37.524Z,35.53
2023-02-11T23:59:06.845Z,38.57
